createdAt,value
2022-12-23T00:01:58.831Z,45.43
2022-12-23T00:04:33.355Z,40.77
2022-12-23T00:07:07.727Z,39.83
2022-12-23T00:09:42.412Z,44.33
2022-12-23T00:12:34.180Z,33.77
2022-12-23T00:15:10.036Z,41.07
2022-12-23T00:17:46.678Z,37.97
2022-12-23T00:20:22.216Z,35.53
2022-12-23T00:23:08.751Z,40.53
2022-12-23T00:25:45.028Z,41.00
2022-12-23T00:28:22.280Z,38.57
2022-12-23T00:31:01.549Z,43.67
2022-12-23T00:33:38.821Z,44.70
2022-12-23T00:36:15.622Z,32.80
2022-12-23T00:39:08.282Z,42.80
2022-12-23T00:42:00.503Z,32.17
2022-12-23T00:44:34.720Z,36.13
2022-12-23T00:47:29.159Z,37.60
2022-12-23T00:50:10.158Z,33.50
2022-12-23T00:52:44.649Z,37.27
2022-12-23T00:55:18.855Z,32.37
2022-12-23T00:57:53.459Z,31.97
2022-12-23T01:00:41.523Z,35.07
2022-12-23T01:03:34.468Z,35.13
2022-12-23T01:06:10.237Z,35.97
2022-12-23T01:08:45.047Z,32.97
2022-12-23T01:11:19.233Z,35.57
2022-12-23T01:13:53.868Z,33.43
2022-12-23T01:16:28.134Z,31.83
2022-12-23T01:19:02.591Z,37.10
2022-12-23T01:21:38.638Z,30.57
2022-12-23T01:24:13.085Z,34.13
2022-12-23T01:26:47.249Z,34.40
2022-12-23T01:29:21.763Z,30.20
2022-12-23T01:31:56.002Z,32.37
2022-12-23T01:34:36.391Z,36.10
2022-12-23T01:37:12.592Z,29.83
2022-12-23T01:39:47.223Z,26.83
2022-12-23T01:42:39.667Z,32.47
2022-12-23T01:45:19.728Z,29.27
2022-12-23T01:47:57.256Z,32.07
2022-12-23T01:50:36.738Z,38.27
2022-12-23T01:53:16.410Z,61.87
2022-12-23T01:55:54.328Z,31.25
2022-12-23T01:58:33.346Z,39.50
2022-12-23T02:01:26.444Z,29.57
2022-12-23T02:04:05.745Z,29.23
2022-12-23T02:06:59.165Z,23.90
2022-12-23T02:09:36.857Z,44.60
2022-12-23T02:12:32.686Z,32.67
2022-12-23T02:15:42.555Z,47.40
2022-12-23T02:18:52.758Z,39.40
2022-12-23T02:22:14.630Z,33.47
2022-12-23T02:28:13.352Z,21.17
2022-12-23T02:30:57.801Z,22.13
2022-12-23T02:33:50.245Z,33.10
2022-12-23T02:36:35.851Z,37.43
2022-12-23T02:39:14.966Z,27.47
2022-12-23T02:41:58.627Z,16.97
2022-12-23T02:44:40.739Z,30.53
2022-12-23T02:47:21.272Z,31.30
2022-12-23T02:52:33.881Z,32.00
2022-12-23T02:55:13.627Z,28.93
2022-12-23T02:57:51.104Z,32.03
2022-12-23T03:00:26.024Z,32.53
2022-12-23T03:03:01.796Z,53.13
2022-12-23T03:05:41.237Z,20.10
2022-12-23T03:08:18.537Z,50.83
2022-12-23T03:11:04.508Z,23.47
2022-12-23T03:14:05.097Z,34.80
2022-12-23T03:16:51.537Z,17.17
2022-12-23T03:19:32.847Z,44.67
2022-12-23T03:22:16.523Z,16.07
2022-12-23T03:24:57.010Z,22.37
2022-12-23T03:27:38.142Z,42.22
2022-12-23T03:30:15.690Z,31.47
2022-12-23T03:32:55.163Z,31.97
2022-12-23T03:35:35.399Z,17.00
2022-12-23T03:38:14.303Z,30.45
2022-12-23T03:40:54.025Z,31.03
2022-12-23T03:43:34.350Z,31.10
2022-12-23T03:46:13.779Z,38.22
2022-12-23T03:48:53.069Z,36.73
2022-12-23T03:51:33.400Z,19.00
2022-12-23T03:54:13.878Z,22.08
2022-12-23T03:56:54.439Z,20.37
2022-12-23T04:02:10.090Z,14.70
2022-12-23T04:05:17.639Z,26.80
2022-12-23T04:07:58.124Z,26.10
2022-12-23T04:10:35.781Z,32.43
2022-12-23T04:13:10.203Z,26.57
2022-12-23T04:15:45.029Z,27.63
2022-12-23T04:18:19.271Z,22.10
2022-12-23T04:20:54.161Z,22.87
2022-12-23T04:23:29.677Z,20.87
2022-12-23T04:26:04.123Z,23.83
2022-12-23T04:28:38.474Z,23.03
2022-12-23T04:31:13.054Z,18.57
2022-12-23T04:33:47.259Z,18.43
2022-12-23T04:36:21.701Z,19.03
2022-12-23T04:38:57.668Z,20.00
2022-12-23T04:41:32.110Z,34.43
2022-12-23T04:44:06.625Z,32.13
2022-12-23T04:46:41.391Z,19.43
2022-12-23T04:49:15.547Z,17.83
2022-12-23T04:51:50.566Z,36.43
2022-12-23T04:54:26.220Z,23.33
2022-12-23T04:57:00.655Z,48.43
2022-12-23T04:59:35.251Z,23.50
2022-12-23T05:02:10.089Z,23.07
2022-12-23T05:04:44.474Z,37.03
2022-12-23T05:07:19.078Z,31.10
2022-12-23T05:09:54.984Z,19.97
2022-12-23T05:12:30.213Z,30.33
2022-12-23T05:15:04.409Z,23.37
2022-12-23T05:17:38.874Z,21.80
2022-12-23T05:20:13.283Z,34.77
2022-12-23T05:22:47.756Z,21.90
2022-12-23T05:25:23.321Z,26.07
2022-12-23T05:27:58.072Z,24.30
2022-12-23T05:30:35.089Z,27.33
2022-12-23T05:33:09.582Z,16.83
2022-12-23T05:35:43.747Z,25.23
2022-12-23T05:38:18.243Z,28.37
2022-12-23T05:40:54.084Z,25.93
2022-12-23T05:43:28.671Z,23.70
2022-12-23T05:46:03.057Z,13.97
2022-12-23T05:48:37.574Z,32.43
2022-12-23T05:51:11.780Z,19.27
2022-12-23T05:53:46.237Z,31.63
2022-12-23T05:56:21.710Z,18.50
2022-12-23T05:58:56.161Z,30.17
2022-12-23T06:01:30.610Z,20.23
2022-12-23T06:04:05.497Z,14.93
2022-12-23T06:06:39.704Z,19.63
2022-12-23T06:09:14.395Z,27.13
2022-12-23T06:11:50.290Z,12.70
2022-12-23T06:14:28.861Z,12.87
2022-12-23T06:17:03.658Z,17.27
2022-12-23T06:19:38.134Z,18.43
2022-12-23T06:22:12.204Z,20.70
2022-12-23T06:24:46.654Z,12.77
2022-12-23T06:27:22.132Z,22.77
2022-12-23T06:29:56.932Z,17.63
2022-12-23T06:32:37.767Z,19.60
2022-12-23T06:35:13.499Z,27.10
2022-12-23T06:37:47.604Z,26.57
2022-12-23T06:40:22.571Z,24.23
2022-12-23T06:42:58.090Z,20.93
2022-12-23T06:45:32.545Z,25.67
2022-12-23T06:48:07.301Z,48.37
2022-12-23T06:50:45.874Z,82.97
2022-12-23T06:53:20.653Z,37.37
2022-12-23T06:56:00.937Z,22.73
2022-12-23T06:58:37.689Z,27.30
2022-12-23T07:01:12.568Z,51.43
2022-12-23T07:03:47.128Z,32.77
2022-12-23T07:06:21.788Z,40.07
2022-12-23T07:08:55.971Z,35.67
2022-12-23T07:11:30.737Z,31.63
2022-12-23T07:14:06.338Z,13.10
2022-12-23T07:16:40.904Z,28.33
2022-12-23T07:19:15.366Z,24.20
2022-12-23T07:21:49.976Z,32.03
2022-12-23T07:24:24.181Z,28.83
2022-12-23T07:26:59.053Z,24.57
2022-12-23T07:29:34.655Z,31.63
2022-12-23T07:32:09.418Z,26.70
2022-12-23T07:34:43.544Z,28.67
2022-12-23T07:37:17.920Z,23.83
2022-12-23T07:39:54.698Z,21.30
2022-12-23T07:42:46.548Z,14.80
2022-12-23T07:45:22.951Z,45.90
2022-12-23T07:47:59.168Z,27.97
2022-12-23T07:50:34.870Z,16.23
2022-12-23T07:53:09.395Z,30.77
2022-12-23T07:55:43.511Z,36.33
2022-12-23T07:58:17.960Z,20.73
2022-12-23T08:01:00.887Z,24.90
2022-12-23T08:03:36.044Z,14.40
2022-12-23T08:06:12.833Z,34.23
2022-12-23T08:08:48.198Z,24.80
2022-12-23T08:11:22.323Z,26.90
2022-12-23T08:13:56.754Z,25.37
2022-12-23T08:16:36.573Z,27.90
2022-12-23T08:19:14.078Z,37.23
2022-12-23T08:21:48.391Z,32.57
2022-12-23T08:24:23.100Z,39.33
2022-12-23T08:26:58.317Z,35.53
2022-12-23T08:29:36.384Z,22.93
2022-12-23T08:32:12.230Z,19.57
2022-12-23T08:34:46.749Z,20.13
2022-12-23T08:37:20.918Z,20.37
2022-12-23T08:39:59.659Z,13.30
2022-12-23T08:42:33.844Z,23.87
2022-12-23T08:45:09.358Z,18.80
2022-12-23T08:47:44.996Z,26.63
2022-12-23T08:50:20.093Z,25.83
2022-12-23T08:52:54.179Z,20.17
2022-12-23T08:55:28.711Z,25.23
2022-12-23T08:58:03.000Z,21.73
2022-12-23T09:00:41.268Z,25.80
2022-12-23T09:03:17.492Z,32.37
2022-12-23T09:05:52.013Z,31.30
2022-12-23T09:08:26.186Z,18.93
2022-12-23T09:11:00.896Z,27.53
2022-12-23T09:13:36.029Z,25.20
2022-12-23T09:16:11.332Z,19.23
2022-12-23T09:18:47.106Z,30.90
2022-12-23T09:21:23.864Z,14.83
2022-12-23T09:23:58.046Z,16.60
2022-12-23T09:26:33.180Z,19.17
2022-12-23T09:29:07.371Z,28.43
2022-12-23T09:31:41.866Z,17.33
2022-12-23T09:34:17.399Z,18.70
2022-12-23T09:36:55.245Z,23.50
2022-12-23T09:39:29.781Z,18.77
2022-12-23T09:42:08.609Z,21.97
2022-12-23T09:45:00.190Z,19.60
2022-12-23T09:47:35.993Z,18.07
2022-12-23T09:50:21.414Z,18.67
2022-12-23T09:53:01.820Z,20.40
2022-12-23T09:55:47.414Z,23.75
2022-12-23T09:58:30.296Z,22.97
2022-12-23T10:01:14.917Z,24.37
2022-12-23T10:04:05.745Z,31.40
2022-12-23T10:06:42.690Z,39.03
2022-12-23T10:09:18.856Z,37.07
2022-12-23T10:11:53.547Z,31.07
2022-12-23T10:14:31.346Z,27.10
2022-12-23T10:17:14.464Z,27.20
2022-12-23T10:19:51.205Z,22.33
2022-12-23T10:22:33.245Z,20.93
2022-12-23T10:25:16.301Z,22.83
2022-12-23T10:27:50.490Z,22.10
2022-12-23T10:30:54.012Z,29.67
2022-12-23T10:33:24.414Z,67.50
2022-12-23T10:36:06.483Z,49.80
2022-12-23T10:39:03.090Z,49.03
2022-12-23T10:41:46.484Z,51.87
2022-12-23T10:44:47.422Z,23.87
2022-12-23T10:47:32.639Z,19.13
2022-12-23T10:50:29.681Z,17.87
2022-12-23T10:53:07.705Z,16.13
2022-12-23T10:55:43.650Z,18.47
2022-12-23T10:58:19.387Z,15.17
2022-12-23T11:00:56.714Z,20.50
2022-12-23T11:03:33.783Z,50.50
2022-12-23T11:06:10.932Z,21.90
2022-12-23T11:08:45.534Z,314.80
2022-12-23T11:11:21.137Z,76.57
2022-12-23T11:13:55.619Z,23.77
2022-12-23T11:16:30.346Z,21.47
2022-12-23T11:19:07.801Z,20.20
2022-12-23T11:21:55.604Z,17.87
2022-12-23T11:24:38.032Z,22.00
2022-12-23T11:27:17.323Z,112.83
2022-12-23T11:29:55.785Z,123.20
2022-12-23T11:32:30.753Z,24.07
2022-12-23T11:35:05.605Z,18.47
2022-12-23T11:37:44.237Z,22.27
2022-12-23T11:40:26.877Z,25.50
2022-12-23T11:43:04.381Z,20.37
2022-12-23T11:45:39.884Z,19.53
2022-12-23T11:48:28.868Z,20.20
2022-12-23T11:51:05.604Z,20.27
2022-12-23T11:53:44.269Z,17.77
2022-12-23T11:56:18.922Z,14.87
2022-12-23T11:58:58.296Z,16.07
2022-12-23T12:01:33.726Z,17.87
2022-12-23T12:04:10.510Z,16.77
2022-12-23T12:06:52.693Z,16.87
2022-12-23T12:09:32.939Z,18.97
2022-12-23T12:12:13.615Z,14.73
2022-12-23T12:17:28.654Z,15.90
2022-12-23T12:20:11.840Z,20.60
2022-12-23T12:22:52.927Z,25.70
2022-12-23T12:25:39.648Z,20.77
2022-12-23T12:28:19.880Z,20.93
2022-12-23T12:30:59.157Z,29.87
2022-12-23T12:33:39.694Z,26.47
2022-12-23T12:36:22.339Z,32.20
2022-12-23T12:39:00.225Z,25.47
2022-12-23T12:41:39.404Z,23.77
2022-12-23T12:44:31.643Z,18.90
2022-12-23T12:47:28.578Z,21.90
2022-12-23T12:50:17.348Z,16.33
2022-12-23T12:52:55.341Z,15.73
2022-12-23T12:55:33.835Z,16.50
2022-12-23T12:58:16.886Z,14.23
2022-12-23T13:01:04.203Z,18.70
2022-12-23T13:04:13.154Z,18.53
2022-12-23T13:06:55.333Z,105.70
2022-12-23T13:09:38.468Z,95.57
2022-12-23T13:12:23.600Z,22.27
2022-12-23T13:15:06.648Z,20.90
2022-12-23T13:17:46.878Z,19.43
2022-12-23T13:20:34.087Z,13.43
2022-12-23T13:23:42.484Z,9.07
2022-12-23T13:26:19.433Z,7.83
2022-12-23T13:29:06.345Z,7.60
2022-12-23T13:31:50.394Z,7.30
2022-12-23T13:34:37.332Z,11.10
2022-12-23T13:37:24.241Z,8.57
2022-12-23T13:40:16.018Z,9.03
2022-12-23T13:42:56.823Z,10.73
2022-12-23T13:45:37.502Z,10.05
2022-12-23T13:48:32.964Z,8.97
2022-12-23T13:51:13.862Z,8.17
2022-12-23T13:54:04.170Z,10.53
2022-12-23T13:59:17.886Z,8.80
2022-12-23T14:01:52.907Z,8.37
2022-12-23T14:04:36.659Z,74.43
2022-12-23T14:07:21.968Z,40.93
2022-12-23T14:10:00.574Z,10.97
2022-12-23T14:12:38.678Z,9.50
2022-12-23T14:15:29.342Z,15.43
2022-12-23T14:18:19.276Z,12.07
2022-12-23T14:21:09.368Z,11.77
2022-12-23T14:24:04.261Z,16.10
2022-12-23T14:27:01.249Z,23.33
2022-12-23T14:29:47.253Z,14.80
2022-12-23T14:32:26.026Z,16.90
2022-12-23T14:35:22.081Z,122.27
2022-12-23T14:38:24.991Z,11.57
2022-12-23T14:41:15.943Z,12.73
2022-12-23T14:43:58.195Z,59.57
2022-12-23T14:46:56.632Z,146.27
2022-12-23T14:49:46.252Z,14.30
2022-12-23T14:52:49.283Z,14.93
2022-12-23T14:55:46.701Z,18.60
2022-12-23T14:58:33.118Z,23.40
2022-12-23T15:01:14.100Z,26.60
2022-12-23T15:06:34.227Z,33.00
2022-12-23T15:09:10.987Z,33.07
2022-12-23T15:11:45.633Z,29.50
2022-12-23T15:14:29.541Z,28.13
2022-12-23T15:17:19.264Z,27.80
2022-12-23T15:19:54.638Z,26.87
2022-12-23T15:22:32.744Z,64.57
2022-12-23T15:25:19.657Z,73.73
2022-12-23T15:28:01.490Z,168.80
2022-12-23T15:30:47.175Z,136.30
2022-12-23T15:36:30.803Z,113.03
2022-12-23T15:39:16.909Z,255.40
2022-12-23T15:41:51.139Z,471.80
2022-12-23T15:44:27.647Z,528.73
2022-12-23T15:47:02.248Z,402.87
2022-12-23T15:49:38.299Z,87.27
2022-12-23T15:52:19.827Z,46.87
2022-12-23T15:54:59.959Z,119.93
2022-12-23T15:57:34.469Z,382.53
2022-12-23T16:00:20.898Z,184.43
2022-12-23T16:03:00.996Z,171.83
2022-12-23T16:05:39.596Z,78.43
2022-12-23T16:08:30.223Z,74.03
2022-12-23T16:11:15.073Z,135.25
2022-12-23T16:13:58.746Z,223.50
2022-12-23T16:16:45.267Z,81.43
2022-12-23T16:19:40.348Z,206.97
2022-12-23T16:22:26.908Z,249.67
2022-12-23T16:25:12.251Z,184.10
2022-12-23T16:27:49.289Z,131.73
2022-12-23T16:30:29.280Z,48.47
2022-12-23T16:33:07.001Z,38.80
2022-12-23T16:35:43.499Z,38.27
2022-12-23T16:38:21.055Z,37.43
2022-12-23T16:40:57.610Z,33.50
2022-12-23T16:43:32.389Z,37.30
2022-12-23T16:46:08.495Z,38.67
2022-12-23T16:48:49.300Z,39.40
2022-12-23T16:51:24.771Z,45.20
2022-12-23T16:54:00.407Z,42.27
2022-12-23T16:56:37.112Z,38.40
2022-12-23T16:59:11.674Z,42.40
2022-12-23T17:01:48.604Z,74.60
2022-12-23T17:04:23.012Z,108.83
2022-12-23T17:06:57.529Z,85.63
2022-12-23T17:09:33.117Z,59.73
2022-12-23T17:12:12.322Z,53.87
2022-12-23T17:14:51.248Z,74.07
2022-12-23T17:17:26.550Z,64.37
2022-12-23T17:20:00.826Z,87.00
2022-12-23T17:22:36.969Z,78.30
2022-12-23T17:25:14.124Z,78.77
2022-12-23T17:27:50.153Z,68.67
2022-12-23T17:30:26.253Z,74.20
2022-12-23T17:33:01.957Z,65.07
2022-12-23T17:35:36.178Z,85.63
2022-12-23T17:38:13.701Z,77.03
2022-12-23T17:40:51.626Z,63.80
2022-12-23T17:43:27.384Z,62.33
2022-12-23T17:46:04.051Z,45.57
2022-12-23T17:48:44.992Z,33.50
2022-12-23T17:51:20.944Z,52.67
2022-12-23T17:53:58.264Z,60.47
2022-12-23T17:56:34.889Z,51.20
2022-12-23T17:59:09.753Z,51.53
2022-12-23T18:01:44.236Z,47.73
2022-12-23T18:04:18.793Z,58.67
2022-12-23T18:06:52.932Z,59.87
2022-12-23T19:51:51.878Z,44.78
2022-12-23T19:54:26.892Z,44.63
2022-12-23T19:57:01.184Z,37.17
2022-12-23T19:59:35.945Z,32.87
2022-12-23T20:02:15.106Z,31.43
2022-12-23T20:04:50.258Z,34.73
2022-12-23T20:07:25.938Z,32.17
2022-12-23T20:10:02.181Z,41.60
2022-12-23T20:12:36.733Z,39.33
2022-12-23T20:15:11.637Z,48.20
2022-12-23T20:17:46.160Z,28.23
2022-12-23T20:20:24.827Z,31.00
2022-12-23T20:23:01.344Z,28.27
2022-12-23T20:25:36.058Z,29.60
2022-12-23T20:28:10.806Z,29.27
2022-12-23T20:30:48.299Z,29.17
2022-12-23T20:33:22.866Z,25.87
2022-12-23T20:35:57.408Z,30.10
2022-12-23T20:38:35.123Z,28.53
2022-12-23T20:41:11.273Z,28.07
2022-12-23T20:43:56.919Z,34.47
2022-12-23T20:46:40.727Z,33.67
2022-12-23T20:49:14.985Z,38.43
2022-12-23T20:51:49.517Z,40.07
2022-12-23T20:54:32.017Z,31.80
2022-12-23T20:57:07.853Z,37.60
2022-12-23T20:59:43.064Z,32.10
2022-12-23T21:02:18.342Z,31.50
2022-12-23T21:04:52.585Z,33.87
2022-12-23T21:07:28.906Z,32.27
2022-12-23T21:10:05.307Z,36.63
2022-12-23T21:12:41.257Z,30.10
2022-12-23T21:15:15.737Z,31.97
2022-12-23T21:17:50.460Z,35.57
2022-12-23T21:20:24.849Z,32.40
2022-12-23T21:22:59.605Z,57.63
2022-12-23T21:25:35.202Z,31.23
2022-12-23T21:28:09.677Z,40.50
2022-12-23T21:30:45.480Z,34.63
2022-12-23T21:33:20.080Z,29.57
2022-12-23T21:35:54.319Z,32.90
2022-12-23T21:38:32.896Z,43.07
2022-12-23T21:41:14.233Z,42.13
2022-12-23T21:43:49.206Z,39.37
2022-12-23T21:46:24.542Z,44.50
2022-12-23T21:49:00.157Z,40.77
2022-12-23T21:51:40.109Z,38.63
2022-12-23T21:54:15.194Z,46.95
2022-12-23T21:56:50.717Z,37.13
2022-12-23T21:59:29.677Z,34.60
2022-12-23T22:02:07.098Z,39.50
2022-12-23T22:04:41.618Z,39.37
2022-12-23T22:07:15.790Z,36.27
2022-12-23T22:09:53.893Z,53.87
2022-12-23T22:12:29.480Z,38.30
2022-12-23T22:15:11.161Z,29.77
2022-12-23T22:17:46.120Z,25.57
2022-12-23T22:20:21.124Z,28.33
2022-12-23T22:22:55.635Z,23.83
2022-12-23T22:25:30.133Z,25.27
2022-12-23T22:28:06.479Z,25.57
2022-12-23T22:30:42.362Z,26.47
2022-12-23T22:33:16.904Z,23.43
2022-12-23T22:35:55.919Z,26.73
2022-12-23T22:38:30.097Z,22.67
2022-12-23T22:41:04.797Z,32.80
2022-12-23T22:43:40.368Z,31.77
2022-12-23T22:46:15.351Z,32.47
2022-12-23T22:48:50.439Z,27.43
2022-12-23T22:51:26.709Z,37.80
2022-12-23T22:54:03.009Z,27.60
2022-12-23T22:56:37.886Z,43.60
2022-12-23T22:59:20.351Z,34.63
2022-12-23T23:01:55.451Z,20.73
2022-12-23T23:04:29.649Z,24.67
2022-12-23T23:07:04.192Z,23.43
2022-12-23T23:09:43.333Z,26.20
2022-12-23T23:12:17.999Z,24.23
2022-12-23T23:14:53.532Z,14.73
2022-12-23T23:17:29.805Z,11.20
2022-12-23T23:20:04.098Z,18.73
2022-12-23T23:22:41.574Z,25.63
2022-12-23T23:25:15.970Z,25.03
2022-12-23T23:27:50.445Z,26.27
2022-12-23T23:30:26.142Z,13.90
2022-12-23T23:33:00.984Z,14.30
2022-12-23T23:35:35.232Z,10.63
2022-12-23T23:38:10.401Z,13.57
2022-12-23T23:40:44.616Z,19.03
2022-12-23T23:43:19.520Z,24.67
2022-12-23T23:45:55.384Z,14.37
2022-12-23T23:48:30.136Z,16.23
2022-12-23T23:51:06.146Z,13.23
2022-12-23T23:53:40.736Z,12.43
2022-12-23T23:56:15.789Z,13.97
2022-12-23T23:58:52.623Z,11.73
